Irvine, CA

5:28 PM PDT on May 22, 2015 (GMT -0700)
John Wayne-Orange County | | Change Station
CLOSE
Current Station
Airport
Location: Santa Ana,
Elevation: 56 ft
Nearby Weather Stations

Elev 56 ft 33.68 °N, 117.87 °W | Updated 35 minutes ago

Mostly Cloudy
Mostly Cloudy
65 °F
Feels Like 65 °F
N
9
Wind Variable Wind from West

Today
High -- | Low -- °F
--% Chance of Precip.
Yesterday
High -- | Low -- °F
Precip. -- in
5:46 AM 7:50 PM
Waxing Crescent, 25% visible
Pressure 30.02 in
Visibility 10.0 miles
Clouds Few 1300 ft
Scattered Clouds 4000 ft
Mostly Cloudy 8000 ft
Mostly Cloudy 24000 ft
Dew Point 49 °F
Humidity 56%
Rainfall 0.00 in
Snow Depth Not available.
UV 2 out of 12
Pollen 4.00 out of 12
Air Quality Not available.
Flu Activity Sporadic
METAR KSNA 222353Z 26008KT 10SM FEW013 SCT040 BKN080 BKN240 18/09 A3002 RMK AO2 SLP166 TCU SE-SW T01830094 10200 20178 55001

More Conditions Fewer Conditions

Pressure 30.02 in
Visibility 10.0 miles
Clouds Few 1300 ft
Scattered Clouds 4000 ft
Mostly Cloudy 8000 ft
Mostly Cloudy 24000 ft
Dew Point 49 °F
Humidity 56%
Rainfall 0.00 in
Snow Depth Not available.
UV 2 out of 12
Pollen 4.00 out of 12
Air Quality Not available.
Flu Activity Sporadic
METAR KSNA 222353Z 26008KT 10SM FEW013 SCT040 BKN080 BKN240 18/09 A3002 RMK AO2 SLP166 TCU SE-SW T01830094 10200 20178 55001

More Conditions Fewer Conditions

10-Day Weather Forecast

Almanac

Astronomy

May. 22, 2015 Rise Set
Actual Time
Civil Twilight
Nautical Twilight
Astronomical Twilight
Moon
Length of Visible Light
Length of Day
Tomorrow will be .
, % of the Moon is Illuminated

Today's Extremes

State Highs State Lows

Community

WunderPhotos

Upload Photos

1,823,342 photos uploaded!

WunderBlogs® & News

Nearby

Air Quality

  Air Quality AQ Index Pollutant
Not available.

Snow Depth

Station Depth Elevation

Earthquake Activity

City Distance Mag. Time & Date
Minimum magnitude displayed is 2.5.

Coastal Water Temperatures

Place Temperature

Stations

Nearby Weather Stations

Station Location Temp. Windchill Dew Point Humidity Wind Precip. Elev Updated Type